tititudorancea.com
Station Historical Data
Daily Summary for October 2, 2018 Units:  Metric    English   Both
« Previous Day
Next Day »
Daily Weekly Monthly Yearly Custom
  High: Low: Average:
Temperature: -17.8 °C 11.2 °C 18.3 °C
Dew Point: -17.8 °C 2.1 °C 4.3 °C
Humidity: Humidity % 23 % 42 %
Wind Speed: 0 km/h 0 km/h 12.1 km/h
Wind Gust: 0 km/h - -
Wind:- - SSE
Pressure: 0 hPa 1012.4 hPa -
Precipitation: 0 mm    
Historical Graphs
 
 
Ararat weather Find more about Weather in Ararat, AU


 



 


Tabular Data for October 2, 2018
Time Temperature Dew Point Pressure Wind Wind Speed Wind Gust Humidity Rainfall Rate (Hourly)
-17.8 °C -17.8 °C 0 hPa Calm     Humidity % 0 mm
00:00 12.2 °C 5.6 °C 1022.6 hPa Calm     64 % 0 mm
00:19 12 °C 6.5 °C 1022.6 hPa Calm     69 % 0 mm
00:24 11.8 °C 6.3 °C 1022.6 hPa Calm     69 % 0 mm
00:29 11.8 °C 6.5 °C 1022.6 hPa Calm     70 % 0 mm
00:34 11.7 °C 6.2 °C 1022.6 hPa Calm     69 % 0 mm
00:39 11.6 °C 6.1 °C 1022.6 hPa Calm     69 % 0 mm
00:44 11.6 °C 6.3 °C 1022.6 hPa Calm     70 % 0 mm
00:49 11.5 °C 6 °C 1022.6 hPa Calm     69 % 0 mm
00:54 11.6 °C 6.1 °C 1022.6 hPa Calm     69 % 0 mm
00:59 11.6 °C 6.1 °C 1022.2 hPa Calm     69 % 0 mm
01:04 11.6 °C 5.8 °C 1022.2 hPa Calm     68 % 0 mm
01:09 11.6 °C 5.9 °C 1022.2 hPa Calm     68 % 0 mm
01:14 11.5 °C 5.8 °C 1022.6 hPa NNW 1.6 km/h 0.8 km/h 68 % 0 mm
01:19 11.5 °C 5.4 °C 1022.6 hPa North 5.6 km/h 3.5 km/h 66 % 0 mm
01:24 11.7 °C 4.8 °C 1022.2 hPa NNW 1.9 km/h   63 % 0 mm
01:29 11.8 °C 5.4 °C 1022.2 hPa Calm     65 % 0 mm
01:34 11.8 °C 5.4 °C 1022.2 hPa Calm     65 % 0 mm
01:39 11.8 °C 5 °C 1022.2 hPa Calm     63 % 0 mm
01:44 11.9 °C 4.8 °C 1022.2 hPa Calm     62 % 0 mm
01:49 11.9 °C 5.1 °C 1022.2 hPa Calm     63 % 0 mm
01:54 11.9 °C 5.1 °C 1021.9 hPa Calm     63 % 0 mm
01:59 11.9 °C 5.1 °C 1021.9 hPa Calm     63 % 0 mm
02:04 11.9 °C 5.6 °C 1022.2 hPa Calm     65 % 0 mm
02:09 11.9 °C 5.3 °C 1022.2 hPa Calm     64 % 0 mm
02:14 11.9 °C 5.1 °C 1022.2 hPa Calm     63 % 0 mm
02:19 11.9 °C 4.8 °C 1021.9 hPa Calm     62 % 0 mm
02:24 11.9 °C 4.6 °C 1021.9 hPa Calm     61 % 0 mm
02:29 11.9 °C 5.3 °C 1021.9 hPa Calm     64 % 0 mm
02:34 11.8 °C 5.2 °C 1021.9 hPa Calm     64 % 0 mm
02:39 11.7 °C 5.3 °C 1021.9 hPa Calm     65 % 0 mm
02:44 11.7 °C 5.6 °C 1021.9 hPa Calm     66 % 0 mm
02:49 11.7 °C 5.7 °C 1021.9 hPa Calm     67 % 0 mm
02:54 11.7 °C 5.7 °C 1021.9 hPa Calm     67 % 0 mm
02:59 11.6 °C 6.1 °C 1021.9 hPa Calm     69 % 0 mm
03:04 11.6 °C 6.3 °C 1021.9 hPa Calm     70 % 0 mm
03:09 11.5 °C 6.4 °C 1021.9 hPa Calm     71 % 0 mm
03:14 11.4 °C 6.3 °C 1021.9 hPa Calm     71 % 0 mm
03:19 11.3 °C 6.3 °C 1021.9 hPa Calm     71 % 0 mm
03:24 11.2 °C 5.9 °C 1021.6 hPa Calm     70 % 0 mm
03:29 11.2 °C 5.9 °C 1021.6 hPa NNW 1.9 km/h   70 % 0 mm
03:34 11.2 °C 6.2 °C 1021.6 hPa Calm   0.3 km/h 71 % 0 mm
03:39 11.2 °C 6.3 °C 1021.6 hPa Calm     72 % 0 mm
03:44 11.2 °C 6.3 °C 1021.6 hPa Calm     72 % 0 mm
03:49 11.2 °C 6.3 °C 1021.2 hPa Calm     72 % 0 mm
03:54 11.2 °C 6.6 °C 1021.2 hPa Calm     73 % 0 mm
03:59 11.2 °C 6.6 °C 1021.2 hPa Calm     73 % 0 mm
04:04 11.2 °C 6.6 °C 1021.2 hPa Calm     73 % 0 mm
04:09 11.2 °C 6.3 °C 1021.6 hPa NNW 1.6 km/h 0.6 km/h 72 % 0 mm
04:14 11.2 °C 5.9 °C 1021.6 hPa North 5.6 km/h 3.9 km/h 70 % 0 mm
04:19 11.3 °C 5.6 °C 1021.6 hPa NNW 7.4 km/h 4.3 km/h 68 % 0 mm
04:24 11.6 °C 4.1 °C 1021.2 hPa NNW 6.4 km/h 5.3 km/h 60 % 0 mm
04:29 12.5 °C 3.4 °C 1021.2 hPa NNW 5.6 km/h 4.3 km/h 54 % 0 mm
04:34 13.1 °C 3.7 °C 1021.6 hPa NNW 5.6 km/h 5.3 km/h 53 % 0 mm
04:39 13.6 °C 2.7 °C 1021.6 hPa North 7.4 km/h 6.3 km/h 48 % 0 mm
04:44 14.2 °C 2.7 °C 1021.2 hPa NNW 7.4 km/h 4.7 km/h 46 % 0 mm
04:49 14.3 °C 2.8 °C 1021.2 hPa NNW 3.7 km/h 3.5 km/h 46 % 0 mm
04:54 14.4 °C 2.6 °C 1021.2 hPa North 9.3 km/h 2.1 km/h 45 % 0 mm
04:59 14.5 °C 2.7 °C 1020.9 hPa North 9.3 km/h 5.3 km/h 45 % 0 mm
05:04 14.5 °C 3 °C 1021.2 hPa North 5.6 km/h 1.3 km/h 46 % 0 mm
05:09 14.4 °C 2.9 °C 1021.2 hPa Calm     46 % 0 mm
05:14 14.2 °C 3.3 °C 1020.9 hPa North 3.7 km/h 0.8 km/h 48 % 0 mm
05:19 14 °C 3.4 °C 1020.9 hPa North 3.7 km/h 2.3 km/h 49 % 0 mm
05:24 13.7 °C 3.2 °C 1020.9 hPa North 3.7 km/h 2.1 km/h 49 % 0 mm
05:29 13.6 °C 3.1 °C 1020.9 hPa North 5.6 km/h 2.7 km/h 49 % 0 mm
05:34 13.7 °C 3.1 °C 1021.2 hPa North 5.6 km/h 3.2 km/h 49 % 0 mm
05:39 13.8 °C 2.9 °C 1021.2 hPa North 8 km/h 5.3 km/h 48 % 0 mm
05:44 14.2 °C 3 °C 1021.6 hPa North 7.4 km/h 4.5 km/h 47 % 0 mm
05:49 14.4 °C 2.9 °C 1021.6 hPa North 5.6 km/h 3.4 km/h 46 % 0 mm
05:54 14.6 °C 2.8 °C 1021.6 hPa North 5.6 km/h 2.6 km/h 45 % 0 mm
05:59 14.7 °C 2.8 °C 1021.9 hPa North 5.6 km/h 3.9 km/h 45 % 0 mm
06:04 14.7 °C 2.8 °C 1021.9 hPa North 5.6 km/h 4 km/h 45 % 0 mm
06:09 14.7 °C 2.8 °C 1021.9 hPa North 7.4 km/h 4.5 km/h 45 % 0 mm
06:14 14.7 °C 2.6 °C 1021.9 hPa North 11.1 km/h 4.5 km/h 44 % 0 mm
06:19 14.8 °C 2.6 °C 1021.9 hPa North 3.7 km/h 4.3 km/h 44 % 0 mm
06:24 14.8 °C 3 °C 1021.9 hPa North 5.6 km/h 5 km/h 45 % 0 mm
06:29 14.8 °C 2.7 °C 1021.9 hPa North 5.6 km/h 3.7 km/h 44 % 0 mm
06:34 14.8 °C 2.7 °C 1021.9 hPa North 5.6 km/h 4.8 km/h 44 % 0 mm
06:39 14.9 °C 3.1 °C 1021.9 hPa North 5.6 km/h 4 km/h 45 % 0 mm
06:44 14.8 °C 3 °C 1021.9 hPa North 5.6 km/h 2.9 km/h 45 % 0 mm
06:49 14.8 °C 3 °C 1021.9 hPa North 5.6 km/h 1.6 km/h 45 % 0 mm
06:54 14.8 °C 2.9 °C 1021.9 hPa North 1.6 km/h 0.5 km/h 45 % 0 mm
06:59 14.7 °C 3.2 °C 1021.9 hPa Calm     46 % 0 mm
07:04 14.6 °C 3.7 °C 1021.9 hPa Calm     48 % 0 mm
07:09 14.5 °C 3.9 °C 1021.9 hPa North 1.9 km/h 0.2 km/h 49 % 0 mm
07:14 14.4 °C 4.4 °C 1021.9 hPa Calm     51 % 0 mm
07:19 14.3 °C 4 °C 1021.9 hPa Calm     50 % 0 mm
07:24 14.2 °C 3.7 °C 1021.9 hPa Calm     49 % 0 mm
07:29 14.2 °C 5.6 °C 1021.9 hPa North 3.7 km/h 2.6 km/h 56 % 0 mm
07:34 14.2 °C 4.7 °C 1021.9 hPa North 3.7 km/h 2.1 km/h 53 % 0 mm
07:39 14.3 °C 4.6 °C 1021.9 hPa North 3.7 km/h 2.4 km/h 52 % 0 mm
07:44 14.5 °C 4.2 °C 1022.2 hPa North 5.6 km/h 4.3 km/h 50 % 0 mm
07:49 14.7 °C 4.1 °C 1022.2 hPa North 13 km/h 10.5 km/h 49 % 0 mm
07:54 15 °C 3.4 °C 1022.2 hPa NNW 9.3 km/h 8.4 km/h 46 % 0 mm
07:59 15.2 °C 3.7 °C 1021.9 hPa NNW 11.1 km/h 7.2 km/h 46 % 0 mm
08:04 15.6 °C 3.3 °C 1021.9 hPa North 9.3 km/h 4.5 km/h 44 % 0 mm
08:09 15.9 °C 4 °C 1021.9 hPa NNW 5.6 km/h 3.5 km/h 45 % 0 mm
08:14 16.1 °C 3.8 °C 1021.9 hPa NNW 4.8 km/h 4.2 km/h 44 % 0 mm
08:19 16.2 °C 3.9 °C 1021.6 hPa NNW 7.4 km/h 5.3 km/h 44 % 0 mm
08:24 16.2 °C 3.9 °C 1021.9 hPa NNW 5.6 km/h 5.1 km/h 44 % 0 mm
08:29 16.3 °C 4 °C 1021.6 hPa NNW 9.3 km/h 5.5 km/h 44 % 0 mm
08:34 16.4 °C 4.1 °C 1021.6 hPa NNW 7.4 km/h 3.2 km/h 44 % 0 mm
08:39 16.6 °C 3.9 °C 1021.9 hPa NNW 5.6 km/h 2.6 km/h 43 % 0 mm
08:44 16.8 °C 4.2 °C 1021.6 hPa North 3.7 km/h 3.7 km/h 43 % 0 mm
08:49 16.9 °C 4.2 °C 1021.6 hPa North 5.6 km/h 2.7 km/h 43 % 0 mm
08:54 16.9 °C 4.3 °C 1021.6 hPa NNW 5.6 km/h 4.8 km/h 43 % 0 mm
08:59 17.2 °C 4.4 °C 1021.2 hPa North 4.8 km/h 4.3 km/h 43 % 0 mm
09:04 17.6 °C 4.8 °C 1021.2 hPa NNW 5.6 km/h 2.7 km/h 43 % 0 mm
09:09 17.9 °C 4.4 °C 1021.2 hPa NNW 5.6 km/h 1.8 km/h 41 % 0 mm
09:14 18.3 °C 5.1 °C 1021.2 hPa NNW 6.4 km/h 4.7 km/h 42 % 0 mm
09:19 18.3 °C 4.8 °C 1021.2 hPa NNW 5.6 km/h 4.2 km/h 41 % 0 mm
09:24 18.7 °C 4.4 °C 1020.9 hPa NNW 5.6 km/h 1.3 km/h 39 % 0 mm
09:29 19 °C 4.3 °C 1020.9 hPa North 5.6 km/h 2.6 km/h 38 % 0 mm
09:34 19.2 °C 4.6 °C 1020.9 hPa North 9.7 km/h 1.6 km/h 38 % 0 mm
09:39 19.1 °C 4.1 °C 1020.9 hPa NNW 9.7 km/h 6.9 km/h 37 % 0 mm
09:44 18.9 °C 3.5 °C 1020.9 hPa North 11.3 km/h 9.5 km/h 36 % 0 mm
09:49 18.8 °C 4.2 °C 1020.9 hPa NE 7.4 km/h 4.3 km/h 38 % 0 mm
09:54 19.3 °C 5 °C 1020.5 hPa NE 11.1 km/h 4.8 km/h 39 % 0 mm
09:59 19.7 °C 4.2 °C 1020.5 hPa NE 14.8 km/h 8.2 km/h 36 % 0 mm
10:04 19.9 °C 4.8 °C 1020.5 hPa NE 11.1 km/h 4.8 km/h 37 % 0 mm
10:09 19.7 °C 4.2 °C 1020.5 hPa NE 13 km/h 9.2 km/h 36 % 0 mm
10:14 19.8 °C 3.9 °C 1020.2 hPa NE 22.2 km/h 13.7 km/h 35 % 0 mm
10:19 19.9 °C 4.8 °C 1020.2 hPa NNE 16.7 km/h 12.7 km/h 37 % 0 mm
10:24 20.3 °C 4.3 °C 1019.9 hPa ENE 24.1 km/h 13.8 km/h 35 % 0 mm
10:29 20.7 °C 4.7 °C 1019.9 hPa NNE 18.5 km/h 13.5 km/h 35 % 0 mm
10:34 21 °C 5.3 °C 1019.9 hPa NE 16.7 km/h 7.7 km/h 36 % 0 mm
10:39 21.1 °C 5.1 °C 1019.5 hPa NE 18.5 km/h 7.1 km/h 35 % 0 mm
10:44 21.6 °C 5 °C 1019.5 hPa ENE 16.7 km/h 7.6 km/h 34 % 0 mm
10:49 21.7 °C 5.2 °C 1019.5 hPa NE 18.5 km/h 14.5 km/h 34 % 0 mm
10:54 21.5 °C 4.9 °C 1019.5 hPa NNE 20.4 km/h 12.4 km/h 34 % 0 mm
10:59 21.7 °C 5.6 °C 1019.5 hPa NE 18.5 km/h 11.4 km/h 35 % 0 mm
11:04 21.9 °C 5.3 °C 1019.2 hPa NNE 18.5 km/h 11.6 km/h 34 % 0 mm
11:09 21.9 °C 5.8 °C 1019.2 hPa NNE 14.5 km/h 10.5 km/h 35 % 0 mm
11:14 22.3 °C 4.8 °C 1018.8 hPa NNE 22.2 km/h 13.8 km/h 32 % 0 mm
11:19 22.6 °C 5.5 °C 1018.8 hPa NE 18.5 km/h 9.8 km/h 33 % 0 mm
11:24 23.1 °C 4.1 °C 1018.8 hPa North 25.7 km/h 12.9 km/h 29 % 0 mm
11:29 23.6 °C 4 °C 1018.8 hPa NNE 18.5 km/h 17.9 km/h 28 % 0 mm
11:34 23.9 °C 3.7 °C 1018.5 hPa NE 22.2 km/h 15.8 km/h 27 % 0 mm
11:39 23.8 °C 2.6 °C 1018.5 hPa NNE 33.3 km/h 13.5 km/h 25 % 0 mm
11:44 24.1 °C 3.3 °C 1018.5 hPa NNE 24.1 km/h 14.2 km/h 26 % 0 mm
11:49 23.7 °C 3.1 °C 1018.2 hPa ENE 18.5 km/h 14.8 km/h 26 % 0 mm
11:54 23.2 °C 3.2 °C 1018.2 hPa NE 27.8 km/h 12.1 km/h 27 % 0 mm
11:59 22.9 °C 3.4 °C 1018.2 hPa NNE 25.9 km/h 7.6 km/h 28 % 0 mm
12:04 23.3 °C 3.8 °C 1018.2 hPa NNE 18.5 km/h 9.3 km/h 28 % 0 mm
12:09 23.6 °C 3.5 °C 1017.8 hPa NE 30.6 km/h 21.7 km/h 27 % 0 mm
12:14 23.9 °C 3.7 °C 1017.8 hPa NNE 25.9 km/h 16.1 km/h 27 % 0 mm
12:19 23.8 °C 3.2 °C 1017.8 hPa NNE 40.7 km/h 14.5 km/h 26 % 0 mm
12:24 23.5 °C 3.9 °C 1017.8 hPa NNE 22.2 km/h 15.3 km/h 28 % 0 mm
12:29 23.4 °C 3.4 °C 1017.8 hPa North 22.2 km/h 18.8 km/h 27 % 0 mm
12:34 23.2 °C 3.7 °C 1017.5 hPa North 38.9 km/h 23.8 km/h 28 % 0 mm
12:39 23 °C 4 °C 1017.5 hPa North 18.5 km/h 11.4 km/h 29 % 0 mm
12:44 23.6 °C 4 °C 1017.2 hPa NNE 22.2 km/h 17.2 km/h 28 % 0 mm
12:49 23.6 °C 4.5 °C 1017.2 hPa NNE 31.5 km/h 15 km/h 29 % 0 mm
12:54 23.6 °C 4 °C 1017.2 hPa North 31.5 km/h 19.8 km/h 28 % 0 mm
12:59 23.6 °C 5 °C 1016.8 hPa North 27.8 km/h 14.2 km/h 30 % 0 mm
13:04 24.1 °C 4.9 °C 1016.8 hPa North 32.2 km/h 17.1 km/h 29 % 0 mm
13:09 24.1 °C 4.4 °C 1016.8 hPa NNE 29.6 km/h 24.5 km/h 28 % 0 mm
13:14 24.2 °C 5.1 °C 1016.5 hPa NNE 27.8 km/h 15.4 km/h 29 % 0 mm
13:19 24.5 °C 4.8 °C 1016.5 hPa NNE 25.9 km/h 18.8 km/h 28 % 0 mm
13:24 24.7 °C 4.4 °C 1016.5 hPa North 31.5 km/h 16.1 km/h 27 % 0 mm
13:29 24.9 °C 4.6 °C 1016.5 hPa North 35.2 km/h 21.6 km/h 27 % 0 mm
13:34 24.6 °C 4.3 °C 1016.1 hPa North 25.9 km/h 16.9 km/h 27 % 0 mm
13:39 24.5 °C 5.3 °C 1016.1 hPa North 27.8 km/h 15.3 km/h 29 % 0 mm
13:44 24.7 °C 4.4 °C 1016.1 hPa North 27.8 km/h 22.7 km/h 27 % 0 mm
13:49 24.9 °C 4.1 °C 1016.1 hPa North 27.8 km/h 29.6 km/h 26 % 0 mm
13:54 24.6 °C 3.8 °C 1016.1 hPa North 27.8 km/h 21.7 km/h 26 % 0 mm
13:59 24.4 °C 3.7 °C 1015.8 hPa North 31.5 km/h 10 km/h 26 % 0 mm
14:04 24.4 °C 3.7 °C 1015.8 hPa NNE 27.4 km/h 21.2 km/h 26 % 0 mm
14:09 24.4 °C 3.6 °C 1015.8 hPa North 38.9 km/h 24.1 km/h 26 % 0 mm
14:14 24.5 °C 3.7 °C 1015.8 hPa North 25.9 km/h 19.2 km/h 26 % 0 mm
14:19 24.4 °C 4.2 °C 1015.8 hPa North 22.5 km/h 13.4 km/h 27 % 0 mm
14:24 24.4 °C 3.1 °C 1015.5 hPa NNE 29 km/h 24.6 km/h 25 % 0 mm
14:29 24.4 °C 3.1 °C 1015.5 hPa NE 25.9 km/h 22.9 km/h 25 % 0 mm
14:34 24.7 °C 3.3 °C 1015.5 hPa NNE 31.5 km/h 18 km/h 25 % 0 mm
14:39 24.7 °C 3.3 °C 1015.1 hPa NNE 35.4 km/h 24.3 km/h 25 % 0 mm
14:44 24.4 °C 3.7 °C 1015.1 hPa North 33.3 km/h 17.2 km/h 26 % 0 mm
14:49 24.3 °C 3.1 °C 1015.1 hPa NNE 29.6 km/h 18.2 km/h 25 % 0 mm
14:54 24.6 °C 3.8 °C 1015.1 hPa NNW 33.3 km/h 18.8 km/h 26 % 0 mm
14:59 24.7 °C 2.8 °C 1015.1 hPa North 31.5 km/h 19.8 km/h 24 % 0 mm
15:04 24.6 °C 2.1 °C 1015.1 hPa NNE 37 km/h 20.3 km/h 23 % 0 mm
15:09 24.7 °C 2.1 °C 1015.1 hPa NNE 33.3 km/h 15.9 km/h 23 % 0 mm
15:14 24.6 °C 2.7 °C 1014.8 hPa NNW 29.6 km/h 15.1 km/h 24 % 0 mm
15:19 24.2 °C 2.3 °C 1015.1 hPa North 37 km/h 19.2 km/h 24 % 0 mm
15:24 23.9 °C 2.7 °C 1014.8 hPa North 29.6 km/h 15.4 km/h 25 % 0 mm
15:29 23.9 °C 3.2 °C 1014.8 hPa North 31.5 km/h 14 km/h 26 % 0 mm
15:34 23.8 °C 3.2 °C 1014.8 hPa NNE 31.5 km/h 15.9 km/h 26 % 0 mm
15:39 23.8 °C 3.7 °C 1014.4 hPa North 27.8 km/h 16.6 km/h 27 % 0 mm
15:44 23.8 °C 3.7 °C 1014.8 hPa North 29 km/h 21.4 km/h 27 % 0 mm
15:49 23.7 °C 4.1 °C 1014.4 hPa NNE 25.9 km/h 26.1 km/h 28 % 0 mm
15:54 23.7 °C 4.6 °C 1014.4 hPa NNE 20.4 km/h 13.8 km/h 29 % 0 mm
15:59 23.8 °C 4.7 °C 1014.4 hPa NNE 22.2 km/h 14.5 km/h 29 % 0 mm
16:04 24 °C 4.8 °C 1014.4 hPa NE 24.1 km/h 20 km/h 29 % 0 mm
16:09 24.3 °C 5.1 °C 1014.1 hPa NNE 18.5 km/h 16.1 km/h 29 % 0 mm
16:14 24.2 °C 4.5 °C 1014.4 hPa NNE 27.8 km/h 12.1 km/h 28 % 0 mm
16:19 23.8 °C 4.7 °C 1014.1 hPa NNE 16.7 km/h 15.4 km/h 29 % 0 mm
16:24 23.6 °C 4.5 °C 1014.1 hPa North 18.5 km/h 17.5 km/h 29 % 0 mm
16:29 23.6 °C 4 °C 1014.1 hPa North 31.5 km/h 21.6 km/h 28 % 0 mm
16:34 23.6 °C 5 °C 1014.1 hPa NNE 18.5 km/h 10.1 km/h 30 % 0 mm
16:39 23.5 °C 4.9 °C 1014.1 hPa NNE 9.3 km/h 8.7 km/h 30 % 0 mm
16:44 23.5 °C 3.4 °C 1014.1 hPa NNE 22.2 km/h 16.1 km/h 27 % 0 mm
16:49 23.6 °C 4 °C 1014.1 hPa NNE 14.5 km/h 8.7 km/h 28 % 0 mm
16:54 23.6 °C 4 °C 1014.1 hPa NNE 24.1 km/h 11.1 km/h 28 % 0 mm
16:59 23.7 °C 3.6 °C 1013.8 hPa NNE 20.4 km/h 12.6 km/h 27 % 0 mm
17:04 24 °C 3.8 °C 1013.8 hPa NNE 27.8 km/h 11.7 km/h 27 % 0 mm
17:09 24.2 °C 4 °C 1013.8 hPa NNE 14.5 km/h 8.2 km/h 27 % 0 mm
17:14 24.2 °C 4 °C 1013.8 hPa NNE 13 km/h 7.1 km/h 27 % 0 mm
17:19 24.1 °C 3.9 °C 1013.8 hPa NNE 18.5 km/h 5 km/h 27 % 0 mm
17:24 23.9 °C 3.8 °C 1013.8 hPa NNE 16.7 km/h 11.6 km/h 27 % 0 mm
17:29 23.9 °C 4.3 °C 1013.8 hPa NE 9.3 km/h 8.2 km/h 28 % 0 mm
17:34 23.8 °C 4.2 °C 1013.4 hPa NE 13 km/h 7.9 km/h 28 % 0 mm
17:39 23.5 °C 3.9 °C 1013.4 hPa NE 18.5 km/h 5.8 km/h 28 % 0 mm
17:44 23.2 °C 4.2 °C 1013.4 hPa ENE 12.9 km/h 14 km/h 29 % 0 mm
17:49 22.9 °C 3.9 °C 1013.4 hPa NNE 13 km/h 5.8 km/h 29 % 0 mm
17:54 22.7 °C 4.2 °C 1013.4 hPa NNE 14.8 km/h 8.4 km/h 30 % 0 mm
17:59 22.6 °C 4.6 °C 1013.4 hPa NNE 13 km/h 7.1 km/h 31 % 0 mm
18:04 22.3 °C 4.3 °C 1013.4 hPa NNE 11.3 km/h 5.1 km/h 31 % 0 mm
18:09 22.1 °C 4.6 °C 1013.4 hPa NNE 9.3 km/h 4.5 km/h 32 % 0 mm
18:14 21.8 °C 4.8 °C 1013.1 hPa NNE 5.6 km/h 0.5 km/h 33 % 0 mm
18:19 21.6 °C 4.6 °C 1013.1 hPa NNE 7.4 km/h 5 km/h 33 % 0 mm
18:24 21.4 °C 4.5 °C 1012.8 hPa NNE 5.6 km/h 4.5 km/h 33 % 0 mm
18:29 21.4 °C 4.9 °C 1013.1 hPa NE 7.4 km/h 4.3 km/h 34 % 0 mm
18:34 21.3 °C 4.8 °C 1013.1 hPa NE 11.1 km/h 4.5 km/h 34 % 0 mm
18:39 21.1 °C 5.1 °C 1012.8 hPa NE 6.4 km/h 3.9 km/h 35 % 0 mm
18:44 20.9 °C 5.3 °C 1012.8 hPa NE 7.4 km/h 2.9 km/h 36 % 0 mm
18:49 20.7 °C 5.1 °C 1012.8 hPa NE 5.6 km/h 6 km/h 36 % 0 mm
18:54 20.6 °C 5.3 °C 1012.8 hPa NE 11.1 km/h 3.9 km/h 37 % 0 mm
18:59 20.4 °C 5.2 °C 1012.8 hPa NE 7.4 km/h 4.8 km/h 37 % 0 mm
19:04 20.2 °C 5.4 °C 1012.8 hPa NE 5.6 km/h 2.9 km/h 38 % 0 mm
19:09 20.1 °C 5.3 °C 1012.4 hPa NE 9.3 km/h 5.6 km/h 38 % 0 mm
19:14 20.1 °C 5.3 °C 1012.4 hPa NE 11.1 km/h 5.8 km/h 38 % 0 mm
19:19 20 °C 5.2 °C 1012.8 hPa NE 7.4 km/h 2.7 km/h 38 % 0 mm
19:24 19.9 °C 5.2 °C 1012.8 hPa NE 11.1 km/h 5.3 km/h 38 % 0 mm
19:29 19.9 °C 5.5 °C 1012.8 hPa NE 7.4 km/h 4.3 km/h 39 % 0 mm
19:34 19.8 °C 5.4 °C 1012.8 hPa NE 9.7 km/h 4.3 km/h 39 % 0 mm
19:39 19.7 °C 5.4 °C 1012.8 hPa NE 11.1 km/h 7.2 km/h 39 % 0 mm
19:44 19.7 °C 5.4 °C 1012.8 hPa NE 14.5 km/h 7.4 km/h 39 % 0 mm
19:49 19.8 °C 5.4 °C 1012.8 hPa NE 9.3 km/h 4.3 km/h 39 % 0 mm
19:54 19.8 °C 5.4 °C 1012.8 hPa NE 7.4 km/h 3.1 km/h 39 % 0 mm
19:59 19.7 °C 5.4 °C 1012.8 hPa NNE 7.4 km/h 5.3 km/h 39 % 0 mm
20:04 19.6 °C 5.6 °C 1012.8 hPa NNE 7.4 km/h 4.2 km/h 40 % 0 mm
20:09 19.4 °C 5.8 °C 1012.8 hPa NNE 6.4 km/h 3.9 km/h 41 % 0 mm
20:14 19.2 °C 5.6 °C 1012.8 hPa NNE 5.6 km/h 3.5 km/h 41 % 0 mm
20:19 19.1 °C 5.5 °C 1012.8 hPa NNE 5.6 km/h 2.4 km/h 41 % 0 mm
20:24 18.9 °C 5.7 °C 1012.4 hPa NNE 5.6 km/h 3.4 km/h 42 % 0 mm
20:29 18.7 °C 5.6 °C 1012.4 hPa NNE 5.6 km/h 4 km/h 42 % 0 mm
20:34 18.6 °C 5.4 °C 1012.4 hPa NNE 5.6 km/h 3.2 km/h 42 % 0 mm
20:39 18.6 °C 5.4 °C 1012.4 hPa NNE 3.7 km/h 2.6 km/h 42 % 0 mm
20:44 18.6 °C 5.4 °C 1012.4 hPa NNE 5.6 km/h 2.6 km/h 42 % 0 mm
20:49 18.7 °C 5.2 °C 1012.4 hPa NNE 5.6 km/h 3.5 km/h 41 % 0 mm
20:54 18.7 °C 5.2 °C 1012.4 hPa NNE 5.6 km/h 4.2 km/h 41 % 0 mm
20:59 18.8 °C 4.9 °C 1012.4 hPa NNE 7.4 km/h 5.5 km/h 40 % 0 mm
21:04 19 °C 4.7 °C 1012.4 hPa NNE 3.7 km/h 3.9 km/h 39 % 0 mm
21:09 19 °C 4.7 °C 1012.4 hPa NNE 5.6 km/h 4.2 km/h 39 % 0 mm
21:14 18.9 °C 4.3 °C 1012.4 hPa NNE 5.6 km/h 1.6 km/h 38 % 0 mm
21:19 18.8 °C 4.2 °C 1012.4 hPa NNE 3.7 km/h 0.6 km/h 38 % 0 mm
21:24 18.8 °C 4.2 °C 1012.4 hPa NNE 5.6 km/h 4.5 km/h 38 % 0 mm
21:29 19.2 °C 3.7 °C 1012.4 hPa NNE 11.1 km/h 7.1 km/h 36 % 0 mm
21:34 19.9 °C 3.1 °C 1012.4 hPa NNE 9.3 km/h 7.6 km/h 33 % 0 mm
21:39 20.4 °C 3.1 °C 1012.8 hPa North 14.8 km/h 9 km/h 32 % 0 mm
21:44 20.5 °C 3.2 °C 1012.8 hPa North 13 km/h 7.6 km/h 32 % 0 mm
21:49 20.5 °C 2.8 °C 1013.1 hPa NNW 14.8 km/h 9.8 km/h 31 % 0 mm
21:54 20.4 °C 3.2 °C 1013.8 hPa West 24.1 km/h 17.2 km/h 32 % 0 mm
21:59 20.4 °C 3.1 °C 1013.8 hPa North 29.6 km/h 18.5 km/h 32 % 0 mm
22:04 20.8 °C 2.6 °C 1013.4 hPa North 18.5 km/h 10 km/h 30 % 0 mm
22:09 20.8 °C 2.6 °C 1013.4 hPa NW 11.3 km/h 6.1 km/h 30 % 0 mm
22:14 20.9 °C 2.2 °C 1013.4 hPa NW 18.5 km/h 11.4 km/h 29 % 0 mm
22:19 21.1 °C 2.4 °C 1013.4 hPa WNW 14.8 km/h 6.8 km/h 29 % 0 mm
22:24 20.6 °C 3.7 °C 1013.8 hPa North 33.8 km/h 27 km/h 33 % 0 mm
22:29 19.3 °C 4.3 °C 1013.8 hPa SW 24.1 km/h 13 km/h 37 % 0 mm
22:34 18.6 °C 3.9 °C 1013.4 hPa SSW 25.9 km/h 19.6 km/h 38 % 0 mm
22:39 18.1 °C 3.9 °C 1013.4 hPa SW 13 km/h 7.1 km/h 39 % 0 mm
22:44 17.8 °C 3.7 °C 1013.4 hPa North 13 km/h 11.3 km/h 39 % 0 mm
22:49 17.7 °C 3.9 °C 1013.8 hPa North 16.7 km/h 12.2 km/h 40 % 0 mm
22:54 17.6 °C 3.8 °C 1013.4 hPa SSW 7.4 km/h 5.5 km/h 40 % 0 mm
22:59 17.5 °C 4.1 °C 1013.4 hPa SSW 5.6 km/h 2.1 km/h 41 % 0 mm
23:04 17.3 °C 4.2 °C 1013.1 hPa SSW 9.3 km/h 5.1 km/h 42 % 0 mm
23:09 17.1 °C 4.4 °C 1013.1 hPa SSW 7.4 km/h 3.9 km/h 43 % 0 mm
23:14 16.8 °C 4.4 °C 1013.1 hPa SSW 9.3 km/h 5.5 km/h 44 % 0 mm
23:19 16.6 °C 4.6 °C 1013.4 hPa SSW 7.4 km/h 3.5 km/h 45 % 0 mm
23:24 16.4 °C 4.8 °C 1013.4 hPa North 6.4 km/h 4 km/h 46 % 0 mm
23:29 16.3 °C 5.3 °C 1013.4 hPa SSW 5.6 km/h 2.9 km/h 48 % 0 mm
23:34 16.2 °C 5.4 °C 1013.1 hPa SSW 9.3 km/h 5.5 km/h 49 % 0 mm
23:39 16 °C 5.3 °C 1013.1 hPa SSW 5.6 km/h 3.7 km/h 49 % 0 mm
23:44 15.8 °C 5.1 °C 1013.1 hPa SSW 5.6 km/h 3.4 km/h 49 % 0 mm
23:49 15.7 °C 5 °C 1013.1 hPa SSW 6.4 km/h 5.3 km/h 49 % 0 mm
23:54 15.6 °C 5.4 °C 1012.8 hPa SSW 5.6 km/h 1.8 km/h 51 % 0 mm
23:59 15.4 °C 5.3 °C 1013.1 hPa SSW 5.6 km/h 3.5 km/h 51 % 0 mm
Ararat Weather
Compliments of Weather Underground - 2.25 mb
Click here to send mail.


ABOUT

Live weather data from Ararat, Victoria, Australia, 3377
Data uploaded from Cumulus every 5 minutes to Weather Underground.
This site then downloads the raw data for formatting and display.
Metric and imperial data can be displayed. Graphs and historical data available.
Includes Sun and Moon times and rain image live from BOM.

Check out Ararat Weather on Facebook, Twitter and Google +

Help support ongoing costs by checking out the ads





Follow @AraratWeather